createdAt,value
2019-01-05T00:01:29.809Z,94.53
2019-01-05T00:04:18.127Z,94.73
2019-01-05T00:10:39.109Z,95.75
2019-01-05T00:16:12.894Z,96.31
2019-01-05T00:19:01.227Z,97.48
2019-01-05T00:21:49.392Z,98.21
2019-01-05T00:24:54.518Z,98.74
2019-01-05T00:27:59.866Z,99.23
2019-01-05T00:31:08.394Z,99.79
2019-01-05T00:33:57.159Z,100.00
2019-01-05T00:37:07.830Z,100.00
2019-01-05T00:43:03.038Z,100.00
2019-01-05T00:45:51.104Z,100.00
2019-01-05T00:49:02.416Z,100.00
2019-01-05T00:55:49.159Z,100.00
2019-01-05T01:01:50.442Z,100.00
2019-01-05T01:04:38.088Z,100.00
2019-01-05T01:07:25.828Z,100.00
2019-01-05T01:10:13.560Z,100.00
2019-01-05T01:13:01.253Z,100.00
2019-01-05T01:16:09.694Z,100.00
2019-01-05T01:18:57.309Z,100.00
2019-01-05T01:21:45.219Z,100.00
2019-01-05T01:24:32.955Z,100.00
2019-01-05T01:27:20.771Z,100.00
2019-01-05T01:30:08.456Z,100.00
2019-01-05T01:32:56.309Z,100.00
2019-01-05T01:36:04.743Z,100.00
2019-01-05T01:42:21.115Z,100.00
2019-01-05T01:45:28.058Z,100.00
2019-01-05T01:48:36.424Z,100.00
2019-01-05T01:51:38.537Z,100.00
2019-01-05T01:54:26.225Z,100.00
2019-01-05T02:00:34.572Z,100.00
2019-01-05T02:03:43.028Z,100.00
2019-01-05T02:09:52.617Z,100.00
2019-01-05T02:13:01.063Z,100.00
2019-01-05T02:19:41.422Z,100.00
2019-01-05T02:23:07.494Z,100.00
2019-01-05T02:26:30.142Z,100.00
2019-01-05T02:29:56.291Z,100.00
2019-01-05T02:33:22.401Z,100.00
2019-01-05T02:39:50.111Z,100.00
2019-01-05T02:43:16.222Z,100.00
2019-01-05T02:46:42.303Z,100.00
2019-01-05T02:50:08.418Z,100.00
2019-01-05T02:53:34.517Z,100.00
2019-01-05T03:00:09.415Z,100.00
2019-01-05T03:03:35.531Z,100.00
2019-01-05T03:06:59.644Z,100.00
2019-01-05T03:10:12.008Z,100.00
2019-01-05T03:13:38.114Z,100.00
2019-01-05T03:17:03.299Z,100.00
2019-01-05T03:20:15.632Z,100.00
2019-01-05T03:23:41.729Z,100.00
2019-01-05T03:26:59.199Z,100.00
2019-01-05T03:30:25.299Z,100.00
2019-01-05T03:33:51.408Z,100.00
2019-01-05T03:37:04.617Z,100.00
2019-01-05T03:40:30.752Z,100.00
2019-01-05T03:43:45.229Z,100.00
2019-01-05T03:47:11.326Z,100.00
2019-01-05T03:50:37.449Z,100.00
2019-01-05T03:54:03.554Z,100.00
2019-01-05T03:57:18.822Z,100.00
2019-01-05T04:00:33.839Z,100.00
2019-01-05T04:03:59.954Z,100.00
2019-01-05T04:07:18.039Z,100.00
2019-01-05T04:10:44.161Z,100.00
2019-01-05T04:14:10.268Z,100.00
2019-01-05T04:17:36.376Z,100.00
2019-01-05T04:21:02.503Z,100.00
2019-01-05T04:24:28.603Z,100.00
2019-01-05T04:27:43.241Z,100.00
2019-01-05T04:31:09.366Z,100.00
2019-01-05T04:34:38.244Z,100.00
2019-01-05T04:37:53.420Z,100.00
2019-01-05T04:41:19.519Z,100.00
2019-01-05T04:44:45.608Z,100.00
2019-01-05T04:48:01.286Z,100.00
2019-01-05T04:51:27.380Z,100.00
2019-01-05T04:54:48.564Z,100.00
2019-01-05T04:58:14.661Z,100.00
2019-01-05T05:01:40.768Z,100.00
2019-01-05T05:05:06.882Z,100.00
2019-01-05T05:08:31.277Z,100.00
2019-01-05T05:11:57.424Z,100.00
2019-01-05T05:15:11.310Z,100.00
2019-01-05T05:18:37.491Z,100.00
2019-01-05T05:22:03.574Z,100.00
2019-01-05T05:25:24.523Z,100.00
2019-01-05T05:28:38.740Z,100.00
2019-01-05T05:32:04.881Z,100.00
2019-01-05T05:35:30.997Z,100.00
2019-01-05T05:38:45.234Z,100.00
2019-01-05T05:42:11.319Z,100.00
2019-01-05T05:45:37.491Z,100.00
2019-01-05T05:49:03.586Z,100.00
2019-01-05T05:52:25.514Z,100.00
2019-01-05T05:55:37.814Z,100.00
2019-01-05T05:58:50.054Z,100.00
2019-01-05T06:02:16.147Z,100.00
2019-01-05T06:05:42.253Z,100.00
2019-01-05T06:09:08.355Z,100.00
2019-01-05T06:15:45.895Z,100.00
2019-01-05T06:19:12.039Z,100.00
2019-01-05T06:22:38.368Z,100.00
2019-01-05T06:26:04.469Z,100.00
2019-01-05T06:29:30.610Z,100.00
2019-01-05T06:32:56.703Z,100.00
2019-01-05T06:36:22.802Z,100.00
2019-01-05T06:39:48.902Z,100.00
2019-01-05T06:43:15.011Z,100.00
2019-01-05T06:46:41.105Z,100.00
2019-01-05T06:49:58.900Z,100.00
2019-01-05T06:53:25.023Z,100.00
2019-01-05T06:56:51.123Z,100.00
2019-01-05T07:00:17.245Z,100.00
2019-01-05T07:03:43.359Z,100.00
2019-01-05T07:07:12.266Z,100.00
2019-01-05T07:10:38.357Z,100.00
2019-01-05T07:14:07.543Z,100.00
2019-01-05T07:17:30.647Z,100.00
2019-01-05T07:20:50.424Z,100.00
2019-01-05T07:24:16.523Z,100.00
2019-01-05T07:27:42.622Z,100.00
2019-01-05T07:31:08.721Z,100.00
2019-01-05T07:38:06.422Z,100.00
2019-01-05T07:41:32.523Z,100.00
2019-01-05T07:44:50.977Z,100.00
2019-01-05T07:48:16.088Z,100.00
2019-01-05T07:51:42.254Z,100.00
2019-01-05T07:55:04.826Z,100.00
2019-01-05T07:58:30.948Z,100.00
2019-01-05T08:01:57.100Z,100.00
2019-01-05T08:05:23.181Z,100.00
2019-01-05T08:08:49.376Z,100.00
2019-01-05T08:12:15.509Z,100.00
2019-01-05T08:15:31.593Z,100.00
2019-01-05T08:18:57.691Z,100.00
2019-01-05T08:22:10.454Z,100.00
2019-01-05T08:25:36.574Z,100.00
2019-01-05T08:28:58.685Z,100.00
2019-01-05T08:32:24.785Z,100.00
2019-01-05T08:35:36.362Z,100.00
2019-01-05T08:39:02.463Z,100.00
2019-01-05T08:42:24.694Z,100.00
2019-01-05T08:45:50.775Z,99.57
2019-01-05T08:49:16.890Z,98.90
2019-01-05T08:52:42.974Z,99.34
2019-01-05T08:56:09.167Z,99.35
2019-01-05T08:59:21.366Z,98.24
2019-01-05T09:02:47.461Z,96.33
2019-01-05T09:06:13.564Z,95.96
2019-01-05T09:09:25.735Z,95.90
2019-01-05T09:12:45.387Z,96.00
2019-01-05T09:16:12.906Z,96.22
2019-01-05T09:19:30.891Z,95.77
2019-01-05T09:22:56.975Z,95.40
2019-01-05T09:26:23.288Z,95.00
2019-01-05T09:29:49.392Z,94.63
2019-01-05T09:33:15.530Z,93.75
2019-01-05T09:36:41.619Z,94.53
2019-01-05T09:40:07.748Z,94.25
2019-01-05T09:43:33.875Z,94.12
2019-01-05T09:46:59.990Z,94.07
2019-01-05T09:50:26.394Z,93.11
2019-01-05T09:53:52.575Z,93.48
2019-01-05T09:57:06.612Z,93.43
2019-01-05T10:00:32.738Z,93.50
2019-01-05T10:03:58.851Z,92.25
2019-01-05T10:07:25.026Z,92.30
2019-01-05T10:10:51.315Z,92.32
2019-01-05T10:14:17.415Z,91.45
2019-01-05T10:24:15.687Z,91.42
2019-01-05T10:27:44.833Z,92.14
2019-01-05T10:31:10.924Z,91.28
2019-01-05T10:34:30.351Z,91.25
2019-01-05T10:41:14.193Z,90.87
2019-01-05T10:44:40.323Z,90.09
2019-01-05T10:48:07.324Z,90.66
2019-01-05T10:51:33.461Z,90.28
2019-01-05T10:54:59.542Z,90.70
2019-01-05T10:58:25.645Z,90.20
2019-01-05T11:01:51.772Z,90.91
2019-01-05T11:05:20.921Z,90.76
2019-01-05T11:08:47.015Z,90.50
2019-01-05T11:12:13.121Z,90.73
2019-01-05T11:15:42.000Z,90.38
2019-01-05T11:19:08.109Z,90.39
2019-01-05T11:22:34.212Z,90.38
2019-01-05T11:29:06.096Z,91.02
2019-01-05T11:32:32.189Z,90.35
2019-01-05T11:35:58.286Z,91.04
2019-01-05T11:42:35.035Z,91.19
2019-01-05T11:46:01.136Z,91.19
2019-01-05T11:49:27.218Z,90.16
2019-01-05T11:52:51.842Z,90.48
2019-01-05T11:59:28.872Z,89.88
2019-01-05T12:02:51.806Z,89.75
2019-01-05T12:06:17.919Z,90.28
2019-01-05T12:09:44.033Z,90.26
2019-01-05T12:13:10.128Z,90.37
2019-01-05T12:16:32.238Z,90.89
2019-01-05T12:22:56.538Z,90.29
2019-01-05T12:26:22.650Z,89.46
2019-01-05T12:29:48.751Z,89.75
2019-01-05T12:33:00.907Z,89.96
2019-01-05T12:36:27.019Z,88.80
2019-01-05T12:39:53.137Z,88.45
2019-01-05T12:43:19.241Z,88.55
2019-01-05T12:50:01.676Z,88.86
2019-01-05T12:53:19.168Z,88.73
2019-01-05T12:56:39.477Z,88.16
2019-01-05T12:59:53.194Z,89.38
2019-01-05T13:03:19.312Z,88.39
2019-01-05T13:06:45.408Z,87.68
2019-01-05T13:10:11.559Z,88.03
2019-01-05T13:13:40.705Z,88.25
2019-01-05T13:17:06.841Z,88.54
2019-01-05T13:20:32.988Z,88.23
2019-01-05T13:23:59.105Z,88.59
2019-01-05T13:27:25.211Z,89.31
2019-01-05T13:30:51.335Z,89.15
2019-01-05T13:34:17.493Z,88.99
2019-01-05T13:37:43.601Z,89.19
2019-01-05T13:41:09.725Z,89.52
2019-01-05T13:44:35.866Z,89.92
2019-01-05T13:48:00.406Z,90.54
2019-01-05T13:51:26.505Z,90.59
2019-01-05T13:54:07.212Z,90.86
2019-01-05T13:56:59.436Z,90.67
2019-01-05T13:59:47.039Z,90.50
2019-01-05T14:02:34.705Z,90.00
2019-01-05T14:05:22.657Z,90.39
2019-01-05T14:08:10.461Z,90.90
2019-01-05T14:10:58.260Z,91.32
2019-01-05T14:17:02.046Z,92.11
2019-01-05T14:23:11.782Z,93.21
2019-01-05T14:27:03.816Z,93.21
2019-01-05T14:29:53.123Z,94.20
2019-01-05T14:39:10.530Z,94.61
2019-01-05T14:54:09.981Z,93.97
2019-01-05T14:57:34.561Z,94.12
2019-01-05T14:59:51.147Z,94.23
2019-01-05T15:03:28.836Z,94.62
2019-01-05T15:05:48.236Z,94.70
2019-01-05T15:08:36.058Z,94.76
2019-01-05T15:11:23.893Z,94.66
2019-01-05T15:14:11.712Z,95.30
2019-01-05T15:16:59.655Z,95.04
2019-01-05T15:19:47.486Z,94.42
2019-01-05T15:22:35.247Z,95.30
2019-01-05T15:25:23.187Z,94.96
2019-01-05T15:28:10.902Z,95.19
2019-01-05T15:30:58.916Z,95.41
2019-01-05T15:33:46.748Z,95.54
2019-01-05T15:36:34.573Z,95.62
2019-01-05T15:42:04.375Z,95.05
2019-01-05T15:44:52.108Z,95.26
2019-01-05T15:47:59.146Z,94.67
2019-01-05T15:50:46.862Z,94.58
2019-01-05T15:53:34.583Z,95.13
2019-01-05T15:56:22.438Z,95.17
2019-01-05T15:59:10.225Z,95.19
2019-01-05T16:01:57.916Z,95.63
2019-01-05T16:04:45.718Z,95.94
2019-01-05T16:07:48.058Z,96.16
2019-01-05T16:10:23.207Z,95.27
2019-01-05T16:13:10.898Z,95.76
2019-01-05T16:15:58.678Z,95.32
2019-01-05T16:18:46.358Z,95.72
2019-01-05T16:21:34.088Z,96.09
2019-01-05T16:24:21.916Z,95.29
2019-01-05T16:27:09.663Z,95.37
2019-01-05T16:29:53.459Z,95.39
2019-01-05T16:32:41.120Z,95.71
2019-01-05T16:35:28.759Z,95.14
2019-01-05T16:38:16.429Z,94.98
2019-01-05T16:41:04.139Z,94.48
2019-01-05T16:43:51.784Z,94.18
2019-01-05T16:46:39.446Z,93.88
2019-01-05T16:49:27.318Z,94.19
2019-01-05T16:52:14.984Z,95.06
2019-01-05T16:55:02.824Z,94.19
2019-01-05T16:57:50.633Z,94.79
2019-01-05T17:00:38.488Z,94.91
2019-01-05T17:03:26.300Z,95.02
2019-01-05T17:06:27.485Z,94.79
2019-01-05T17:09:03.386Z,94.63
2019-01-05T17:14:33.314Z,95.00
2019-01-05T17:17:21.201Z,94.62
2019-01-05T17:19:58.965Z,93.99
2019-01-05T17:22:46.694Z,94.08
2019-01-05T17:25:34.518Z,93.81
2019-01-05T17:28:20.669Z,93.46
2019-01-05T17:31:08.532Z,93.18
2019-01-05T17:33:50.774Z,93.03
2019-01-05T17:36:38.570Z,93.28
2019-01-05T17:42:22.044Z,92.22
2019-01-05T17:48:07.957Z,92.26
2019-01-05T17:50:55.568Z,92.08
2019-01-05T17:59:56.675Z,91.33
2019-01-05T18:02:44.378Z,90.84
2019-01-05T18:05:32.051Z,91.82
2019-01-05T18:08:19.846Z,91.41
2019-01-05T18:14:20.963Z,90.99
2019-01-05T18:17:08.926Z,91.57
2019-01-05T18:19:57.782Z,91.30
2019-01-05T18:22:45.453Z,91.43
2019-01-05T18:28:27.377Z,90.28
2019-01-05T18:31:15.319Z,90.61
2019-01-05T18:34:03.183Z,90.86
2019-01-05T18:36:51.320Z,90.23
2019-01-05T18:39:39.294Z,90.67
2019-01-05T18:42:27.164Z,90.24
2019-01-05T18:45:14.932Z,90.22
2019-01-05T18:48:02.739Z,90.29
2019-01-05T18:50:50.556Z,89.98
2019-01-05T18:53:38.410Z,90.06
2019-01-05T18:56:26.328Z,89.39
2019-01-05T18:59:16.695Z,89.97
2019-01-05T19:02:04.516Z,90.14
2019-01-05T19:04:52.302Z,90.37
2019-01-05T19:10:47.823Z,89.83
2019-01-05T19:13:29.452Z,89.98
2019-01-05T19:29:09.182Z,89.27
2019-01-05T19:37:30.545Z,90.18
2019-01-05T19:50:00.913Z,90.03
2019-01-05T23:59:27.734Z,90.59
